sensor_id;sensor_type;location;lat;lon;timestamp;P1;durP1;ratioP1;P2;durP2;ratioP2
76196;SDS011;64974;53.144;17.962;2022-12-05T04:00:34;47.00;;;17.42;;
76196;SDS011;64974;53.144;17.962;2022-12-05T04:03:05;41.50;;;17.27;;
76196;SDS011;64974;53.144;17.962;2022-12-05T04:05:53;33.03;;;14.60;;
76196;SDS011;64974;53.144;17.962;2022-12-05T04:10:49;33.78;;;13.73;;
76196;SDS011;64974;53.144;17.962;2022-12-05T04:13:17;30.20;;;12.10;;
76196;SDS011;64974;53.144;17.962;2022-12-05T04:15:52;29.05;;;12.48;;
76196;SDS011;64974;53.144;17.962;2022-12-05T04:18:40;36.90;;;14.55;;
76196;SDS011;64974;53.144;17.962;2022-12-05T04:21:10;33.38;;;12.90;;
76196;SDS011;64974;53.144;17.962;2022-12-05T04:23:55;42.17;;;16.42;;
76196;SDS011;64974;53.144;17.962;2022-12-05T04:26:42;27.92;;;12.30;;
76196;SDS011;64974;53.144;17.962;2022-12-05T04:29:32;38.30;;;15.40;;
76196;SDS011;64974;53.144;17.962;2022-12-05T04:31:57;28.38;;;13.52;;
76196;SDS011;64974;53.144;17.962;2022-12-05T04:34:24;39.30;;;15.90;;
76196;SDS011;64974;53.144;17.962;2022-12-05T04:36:57;32.92;;;15.23;;
76196;SDS011;64974;53.144;17.962;2022-12-05T04:41:52;38.20;;;15.32;;
76196;SDS011;64974;53.144;17.962;2022-12-05T04:44:24;42.55;;;15.52;;
76196;SDS011;64974;53.144;17.962;2022-12-05T04:46:53;33.90;;;14.95;;
76196;SDS011;64974;53.144;17.962;2022-12-05T04:49:25;35.17;;;14.13;;
76196;SDS011;64974;53.144;17.962;2022-12-05T04:51:53;39.35;;;16.45;;
76196;SDS011;64974;53.144;17.962;2022-12-05T04:54:21;38.70;;;16.67;;
76196;SDS011;64974;53.144;17.962;2022-12-05T04:56:50;41.45;;;16.75;;
76196;SDS011;64974;53.144;17.962;2022-12-05T04:59:17;41.40;;;16.55;;
76196;SDS011;64974;53.144;17.962;2022-12-05T05:01:44;39.08;;;15.48;;
76196;SDS011;64974;53.144;17.962;2022-12-05T05:04:14;36.67;;;15.82;;
76196;SDS011;64974;53.144;17.962;2022-12-05T05:06:41;41.78;;;16.50;;
76196;SDS011;64974;53.144;17.962;2022-12-05T05:09:07;43.95;;;17.02;;
76196;SDS011;64974;53.144;17.962;2022-12-05T05:11:34;34.67;;;15.15;;
76196;SDS011;64974;53.144;17.962;2022-12-05T05:14:00;32.88;;;13.20;;
76196;SDS011;64974;53.144;17.962;2022-12-05T05:16:33;34.33;;;13.48;;
76196;SDS011;64974;53.144;17.962;2022-12-05T05:19:00;34.17;;;13.77;;
76196;SDS011;64974;53.144;17.962;2022-12-05T05:23:56;35.53;;;14.70;;
76196;SDS011;64974;53.144;17.962;2022-12-05T05:26:21;39.53;;;16.65;;
76196;SDS011;64974;53.144;17.962;2022-12-05T05:28:47;49.20;;;18.10;;
76196;SDS011;64974;53.144;17.962;2022-12-05T05:31:13;33.53;;;14.75;;
76196;SDS011;64974;53.144;17.962;2022-12-05T05:33:40;34.70;;;16.30;;
76196;SDS011;64974;53.144;17.962;2022-12-05T05:36:06;38.65;;;16.25;;
76196;SDS011;64974;53.144;17.962;2022-12-05T05:38:36;38.67;;;15.65;;
76196;SDS011;64974;53.144;17.962;2022-12-05T05:41:03;32.80;;;14.02;;
76196;SDS011;64974;53.144;17.962;2022-12-05T05:43:29;37.78;;;15.50;;
76196;SDS011;64974;53.144;17.962;2022-12-05T05:45:54;39.63;;;16.58;;
76196;SDS011;64974;53.144;17.962;2022-12-05T05:48:20;33.50;;;14.73;;
76196;SDS011;64974;53.144;17.962;2022-12-05T05:50:47;31.10;;;13.32;;
76196;SDS011;64974;53.144;17.962;2022-12-05T05:53:13;33.83;;;13.88;;
76196;SDS011;64974;53.144;17.962;2022-12-05T05:55:38;34.13;;;13.40;;
76196;SDS011;64974;53.144;17.962;2022-12-05T05:58:04;31.50;;;13.32;;
76196;SDS011;64974;53.144;17.962;2022-12-05T06:00:30;32.20;;;14.63;;
76196;SDS011;64974;53.144;17.962;2022-12-05T06:02:55;34.05;;;15.25;;
76196;SDS011;64974;53.144;17.962;2022-12-05T06:05:21;32.20;;;13.45;;
76196;SDS011;64974;53.144;17.962;2022-12-05T06:07:46;31.48;;;13.65;;
76196;SDS011;64974;53.144;17.962;2022-12-05T06:10:11;34.70;;;13.73;;
76196;SDS011;64974;53.144;17.962;2022-12-05T06:12:37;34.78;;;13.70;;
76196;SDS011;64974;53.144;17.962;2022-12-05T06:15:02;31.63;;;13.02;;
76196;SDS011;64974;53.144;17.962;2022-12-05T06:17:29;31.63;;;13.07;;
76196;SDS011;64974;53.144;17.962;2022-12-05T06:19:54;53.67;;;20.35;;
76196;SDS011;64974;53.144;17.962;2022-12-05T06:22:19;43.15;;;17.25;;
76196;SDS011;64974;53.144;17.962;2022-12-05T06:24:45;34.75;;;14.38;;
76196;SDS011;64974;53.144;17.962;2022-12-05T06:27:10;37.65;;;15.25;;
76196;SDS011;64974;53.144;17.962;2022-12-05T06:29:36;36.92;;;14.20;;
76196;SDS011;64974;53.144;17.962;2022-12-05T06:32:01;39.53;;;15.30;;
76196;SDS011;64974;53.144;17.962;2022-12-05T06:34:27;38.45;;;17.58;;
76196;SDS011;64974;53.144;17.962;2022-12-05T06:36:52;32.63;;;14.05;;
76196;SDS011;64974;53.144;17.962;2022-12-05T06:39:20;27.45;;;12.48;;
76196;SDS011;64974;53.144;17.962;2022-12-05T06:41:46;32.17;;;13.30;;
76196;SDS011;64974;53.144;17.962;2022-12-05T06:44:11;26.63;;;11.52;;
76196;SDS011;64974;53.144;17.962;2022-12-05T06:46:37;36.08;;;13.77;;
76196;SDS011;64974;53.144;17.962;2022-12-05T06:49:02;35.42;;;13.73;;
76196;SDS011;64974;53.144;17.962;2022-12-05T06:51:27;39.90;;;15.77;;
76196;SDS011;64974;53.144;17.962;2022-12-05T06:53:53;44.80;;;17.42;;
76196;SDS011;64974;53.144;17.962;2022-12-05T06:56:19;37.45;;;16.95;;
76196;SDS011;64974;53.144;17.962;2022-12-05T06:58:45;35.25;;;14.55;;
76196;SDS011;64974;53.144;17.962;2022-12-05T07:01:16;44.17;;;19.40;;
76196;SDS011;64974;53.144;17.962;2022-12-05T07:04:09;45.85;;;18.70;;
76196;SDS011;64974;53.144;17.962;2022-12-05T07:06:44;50.03;;;19.50;;
76196;SDS011;64974;53.144;17.962;2022-12-05T07:09:10;53.30;;;21.08;;
76196;SDS011;64974;53.144;17.962;2022-12-05T07:11:35;52.05;;;18.88;;
76196;SDS011;64974;53.144;17.962;2022-12-05T07:14:01;46.80;;;18.70;;
76196;SDS011;64974;53.144;17.962;2022-12-05T07:16:27;63.13;;;21.77;;
76196;SDS011;64974;53.144;17.962;2022-12-05T07:18:53;50.03;;;20.65;;
76196;SDS011;64974;53.144;17.962;2022-12-05T07:21:18;45.50;;;18.88;;
76196;SDS011;64974;53.144;17.962;2022-12-05T07:23:46;52.30;;;18.25;;
76196;SDS011;64974;53.144;17.962;2022-12-05T07:26:13;35.75;;;14.95;;
76196;SDS011;64974;53.144;17.962;2022-12-05T07:28:40;34.90;;;13.55;;
76196;SDS011;64974;53.144;17.962;2022-12-05T07:31:06;35.10;;;15.43;;
76196;SDS011;64974;53.144;17.962;2022-12-05T07:33:33;35.75;;;15.52;;
76196;SDS011;64974;53.144;17.962;2022-12-05T07:36:03;36.35;;;14.90;;
76196;SDS011;64974;53.144;17.962;2022-12-05T07:38:30;38.40;;;13.90;;
76196;SDS011;64974;53.144;17.962;2022-12-05T07:40:55;43.58;;;16.77;;
76196;SDS011;64974;53.144;17.962;2022-12-05T07:43:21;34.67;;;15.73;;
76196;SDS011;64974;53.144;17.962;2022-12-05T07:45:46;35.35;;;15.10;;
76196;SDS011;64974;53.144;17.962;2022-12-05T07:48:12;38.55;;;15.68;;
76196;SDS011;64974;53.144;17.962;2022-12-05T07:50:37;43.00;;;16.75;;
76196;SDS011;64974;53.144;17.962;2022-12-05T07:53:02;39.30;;;16.33;;
76196;SDS011;64974;53.144;17.962;2022-12-05T07:55:28;39.50;;;16.45;;
76196;SDS011;64974;53.144;17.962;2022-12-05T07:57:53;35.55;;;15.40;;
76196;SDS011;64974;53.144;17.962;2022-12-05T08:00:19;40.13;;;15.50;;
76196;SDS011;64974;53.144;17.962;2022-12-05T08:02:45;37.78;;;13.40;;
76196;SDS011;64974;53.144;17.962;2022-12-05T08:05:10;38.78;;;15.35;;
76196;SDS011;64974;53.144;17.962;2022-12-05T08:07:35;35.13;;;13.07;;
76196;SDS011;64974;53.144;17.962;2022-12-05T08:10:01;36.07;;;15.00;;
76196;SDS011;64974;53.144;17.962;2022-12-05T08:12:26;35.20;;;14.18;;
76196;SDS011;64974;53.144;17.962;2022-12-05T08:14:51;37.05;;;14.70;;
76196;SDS011;64974;53.144;17.962;2022-12-05T08:17:17;42.63;;;16.60;;
76196;SDS011;64974;53.144;17.962;2022-12-05T08:19:42;45.05;;;15.65;;
76196;SDS011;64974;53.144;17.962;2022-12-05T08:22:08;37.35;;;15.95;;
76196;SDS011;64974;53.144;17.962;2022-12-05T08:24:33;38.00;;;14.85;;
76196;SDS011;64974;53.144;17.962;2022-12-05T08:26:59;36.00;;;13.88;;
76196;SDS011;64974;53.144;17.962;2022-12-05T08:29:24;46.22;;;16.83;;
76196;SDS011;64974;53.144;17.962;2022-12-05T08:31:50;43.15;;;17.35;;
76196;SDS011;64974;53.144;17.962;2022-12-05T08:34:16;49.30;;;18.73;;
76196;SDS011;64974;53.144;17.962;2022-12-05T08:36:43;44.55;;;17.83;;
76196;SDS011;64974;53.144;17.962;2022-12-05T08:39:10;43.17;;;17.08;;
76196;SDS011;64974;53.144;17.962;2022-12-05T08:41:39;48.00;;;18.20;;
76196;SDS011;64974;53.144;17.962;2022-12-05T08:44:04;42.58;;;16.42;;
76196;SDS011;64974;53.144;17.962;2022-12-05T08:46:31;40.05;;;16.58;;
76196;SDS011;64974;53.144;17.962;2022-12-05T08:48:57;49.95;;;18.40;;
76196;SDS011;64974;53.144;17.962;2022-12-05T08:51:22;51.08;;;19.25;;
76196;SDS011;64974;53.144;17.962;2022-12-05T08:53:48;53.85;;;20.30;;
76196;SDS011;64974;53.144;17.962;2022-12-05T08:56:13;50.90;;;21.02;;
76196;SDS011;64974;53.144;17.962;2022-12-05T08:58:39;52.70;;;19.20;;
76196;SDS011;64974;53.144;17.962;2022-12-05T09:01:15;49.50;;;17.35;;
76196;SDS011;64974;53.144;17.962;2022-12-05T09:03:42;47.65;;;18.77;;
76196;SDS011;64974;53.144;17.962;2022-12-05T09:06:15;47.83;;;19.20;;
76196;SDS011;64974;53.144;17.962;2022-12-05T09:08:40;37.83;;;14.68;;
76196;SDS011;64974;53.144;17.962;2022-12-05T09:11:07;42.40;;;15.25;;
76196;SDS011;64974;53.144;17.962;2022-12-05T09:13:35;37.35;;;15.32;;
76196;SDS011;64974;53.144;17.962;2022-12-05T09:16:04;33.72;;;14.77;;
76196;SDS011;64974;53.144;17.962;2022-12-05T09:18:34;35.45;;;14.05;;
76196;SDS011;64974;53.144;17.962;2022-12-05T09:23:32;40.00;;;16.95;;
76196;SDS011;64974;53.144;17.962;2022-12-05T09:25:57;41.40;;;16.50;;
76196;SDS011;64974;53.144;17.962;2022-12-05T09:28:26;39.83;;;15.60;;
76196;SDS011;64974;53.144;17.962;2022-12-05T09:30:58;37.65;;;16.48;;
76196;SDS011;64974;53.144;17.962;2022-12-05T09:33:25;35.78;;;15.70;;
76196;SDS011;64974;53.144;17.962;2022-12-05T09:35:50;37.50;;;15.10;;
76196;SDS011;64974;53.144;17.962;2022-12-05T09:38:16;41.70;;;15.73;;
76196;SDS011;64974;53.144;17.962;2022-12-05T09:40:41;34.38;;;14.95;;
76196;SDS011;64974;53.144;17.962;2022-12-05T09:43:07;35.83;;;13.73;;
76196;SDS011;64974;53.144;17.962;2022-12-05T09:45:47;38.00;;;15.82;;
76196;SDS011;64974;53.144;17.962;2022-12-05T09:48:19;40.78;;;16.00;;
76196;SDS011;64974;53.144;17.962;2022-12-05T09:50:47;48.15;;;19.38;;
76196;SDS011;64974;53.144;17.962;2022-12-05T09:58:40;43.60;;;16.75;;
76196;SDS011;64974;53.144;17.962;2022-12-05T10:09:31;41.22;;;19.55;;
76196;SDS011;64974;53.144;17.962;2022-12-05T10:14:49;40.95;;;16.95;;
76196;SDS011;64974;53.144;17.962;2022-12-05T10:19:57;36.17;;;16.13;;
76196;SDS011;64974;53.144;17.962;2022-12-05T10:22:27;35.95;;;15.80;;
76196;SDS011;64974;53.144;17.962;2022-12-05T10:24:55;34.70;;;14.93;;
76196;SDS011;64974;53.144;17.962;2022-12-05T10:27:29;35.13;;;16.38;;
76196;SDS011;64974;53.144;17.962;2022-12-05T10:30:03;36.72;;;15.02;;
76196;SDS011;64974;53.144;17.962;2022-12-05T10:32:46;44.80;;;16.50;;
76196;SDS011;64974;53.144;17.962;2022-12-05T10:37:42;30.07;;;13.30;;
76196;SDS011;64974;53.144;17.962;2022-12-05T10:40:12;37.85;;;14.32;;
76196;SDS011;64974;53.144;17.962;2022-12-05T10:42:38;31.55;;;13.95;;
76196;SDS011;64974;53.144;17.962;2022-12-05T10:45:04;34.03;;;14.60;;
76196;SDS011;64974;53.144;17.962;2022-12-05T10:47:32;40.60;;;16.30;;
76196;SDS011;64974;53.144;17.962;2022-12-05T10:49:59;35.85;;;14.90;;
76196;SDS011;64974;53.144;17.962;2022-12-05T10:52:29;35.30;;;13.55;;
76196;SDS011;64974;53.144;17.962;2022-12-05T10:54:56;35.47;;;15.30;;
76196;SDS011;64974;53.144;17.962;2022-12-05T10:57:26;36.85;;;14.30;;
76196;SDS011;64974;53.144;17.962;2022-12-05T10:59:54;33.65;;;12.80;;
76196;SDS011;64974;53.144;17.962;2022-12-05T11:02:24;40.75;;;15.25;;
76196;SDS011;64974;53.144;17.962;2022-12-05T11:04:51;36.60;;;14.68;;
76196;SDS011;64974;53.144;17.962;2022-12-05T11:09:50;35.60;;;14.15;;
76196;SDS011;64974;53.144;17.962;2022-12-05T11:17:32;35.65;;;15.38;;
76196;SDS011;64974;53.144;17.962;2022-12-05T11:19:59;30.92;;;12.70;;
76196;SDS011;64974;53.144;17.962;2022-12-05T11:22:29;33.13;;;13.80;;
76196;SDS011;64974;53.144;17.962;2022-12-05T11:24:58;31.25;;;12.48;;
76196;SDS011;64974;53.144;17.962;2022-12-05T11:27:25;31.50;;;13.32;;
76196;SDS011;64974;53.144;17.962;2022-12-05T11:32:25;34.25;;;13.73;;
76196;SDS011;64974;53.144;17.962;2022-12-05T11:34:57;43.95;;;17.42;;
76196;SDS011;64974;53.144;17.962;2022-12-05T11:37:46;45.25;;;18.67;;
76196;SDS011;64974;53.144;17.962;2022-12-05T11:40:29;41.17;;;17.75;;
76196;SDS011;64974;53.144;17.962;2022-12-05T11:43:04;40.40;;;17.90;;
76196;SDS011;64974;53.144;17.962;2022-12-05T11:46:03;40.42;;;16.42;;
76196;SDS011;64974;53.144;17.962;2022-12-05T11:51:31;41.33;;;16.92;;
76196;SDS011;64974;53.144;17.962;2022-12-05T11:54:22;38.97;;;17.30;;
76196;SDS011;64974;53.144;17.962;2022-12-05T11:57:45;44.40;;;17.38;;
76196;SDS011;64974;53.144;17.962;2022-12-05T12:00:47;39.80;;;15.63;;
76196;SDS011;64974;53.144;17.962;2022-12-05T12:03:24;45.40;;;19.02;;
76196;SDS011;64974;53.144;17.962;2022-12-05T12:08:50;49.53;;;20.35;;
76196;SDS011;64974;53.144;17.962;2022-12-05T12:11:28;43.92;;;17.17;;
76196;SDS011;64974;53.144;17.962;2022-12-05T12:25:31;41.60;;;16.95;;
76196;SDS011;64974;53.144;17.962;2022-12-05T12:28:02;40.05;;;16.85;;
76196;SDS011;64974;53.144;17.962;2022-12-05T12:33:32;37.05;;;15.48;;
76196;SDS011;64974;53.144;17.962;2022-12-05T12:36:06;46.42;;;19.60;;
76196;SDS011;64974;53.144;17.962;2022-12-05T12:46:56;44.63;;;18.00;;
76196;SDS011;64974;53.144;17.962;2022-12-05T12:52:02;39.35;;;15.57;;
76196;SDS011;64974;53.144;17.962;2022-12-05T12:57:10;36.85;;;13.00;;
76196;SDS011;64974;53.144;17.962;2022-12-05T12:59:51;39.85;;;15.73;;
76196;SDS011;64974;53.144;17.962;2022-12-05T13:02:46;44.35;;;17.48;;
76196;SDS011;64974;53.144;17.962;2022-12-05T13:05:22;37.13;;;16.50;;
76196;SDS011;64974;53.144;17.962;2022-12-05T13:08:04;34.33;;;14.30;;
76196;SDS011;64974;53.144;17.962;2022-12-05T13:10:36;39.20;;;14.00;;
76196;SDS011;64974;53.144;17.962;2022-12-05T13:13:04;37.22;;;16.48;;
76196;SDS011;64974;53.144;17.962;2022-12-05T13:15:34;40.38;;;15.40;;
76196;SDS011;64974;53.144;17.962;2022-12-05T13:18:05;37.60;;;15.65;;
76196;SDS011;64974;53.144;17.962;2022-12-05T13:20:32;32.47;;;15.07;;
76196;SDS011;64974;53.144;17.962;2022-12-05T13:22:59;40.80;;;15.98;;
76196;SDS011;64974;53.144;17.962;2022-12-05T13:25:27;38.25;;;16.25;;
76196;SDS011;64974;53.144;17.962;2022-12-05T13:27:55;34.95;;;15.55;;
76196;SDS011;64974;53.144;17.962;2022-12-05T13:30:22;36.22;;;14.75;;
76196;SDS011;64974;53.144;17.962;2022-12-05T13:32:54;32.30;;;14.15;;
76196;SDS011;64974;53.144;17.962;2022-12-05T13:35:25;30.75;;;13.95;;
76196;SDS011;64974;53.144;17.962;2022-12-05T13:38:29;35.03;;;14.15;;
76196;SDS011;64974;53.144;17.962;2022-12-05T13:41:14;34.45;;;13.55;;
76196;SDS011;64974;53.144;17.962;2022-12-05T13:43:59;38.53;;;15.15;;
76196;SDS011;64974;53.144;17.962;2022-12-05T13:46:28;35.28;;;14.90;;
76196;SDS011;64974;53.144;17.962;2022-12-05T13:48:57;41.95;;;17.20;;
76196;SDS011;64974;53.144;17.962;2022-12-05T13:51:30;31.35;;;13.85;;
76196;SDS011;64974;53.144;17.962;2022-12-05T13:53:59;31.13;;;14.15;;
76196;SDS011;64974;53.144;17.962;2022-12-05T14:07:44;42.63;;;16.75;;
76196;SDS011;64974;53.144;17.962;2022-12-05T14:12:47;49.60;;;19.67;;
76196;SDS011;64974;53.144;17.962;2022-12-05T14:17:49;51.97;;;21.15;;
76196;SDS011;64974;53.144;17.962;2022-12-05T14:29:18;59.58;;;22.70;;
76196;SDS011;64974;53.144;17.962;2022-12-05T14:34:48;55.90;;;22.75;;
76196;SDS011;64974;53.144;17.962;2022-12-05T14:37:23;46.25;;;19.58;;
76196;SDS011;64974;53.144;17.962;2022-12-05T14:39:51;54.55;;;21.10;;
76196;SDS011;64974;53.144;17.962;2022-12-05T14:44:51;64.45;;;24.77;;
76196;SDS011;64974;53.144;17.962;2022-12-05T14:47:20;77.50;;;28.60;;
76196;SDS011;64974;53.144;17.962;2022-12-05T14:49:55;56.95;;;20.70;;
76196;SDS011;64974;53.144;17.962;2022-12-05T14:52:23;50.83;;;20.00;;
76196;SDS011;64974;53.144;17.962;2022-12-05T14:54:53;48.38;;;19.65;;
76196;SDS011;64974;53.144;17.962;2022-12-05T14:57:24;49.30;;;21.58;;
76196;SDS011;64974;53.144;17.962;2022-12-05T14:59:50;45.67;;;18.73;;
76196;SDS011;64974;53.144;17.962;2022-12-05T15:02:24;52.17;;;21.13;;
76196;SDS011;64974;53.144;17.962;2022-12-05T15:07:57;65.05;;;26.10;;
76196;SDS011;64974;53.144;17.962;2022-12-05T15:10:24;58.25;;;22.10;;
76196;SDS011;64974;53.144;17.962;2022-12-05T15:12:53;50.88;;;19.67;;
76196;SDS011;64974;53.144;17.962;2022-12-05T15:15:39;51.50;;;19.98;;
76196;SDS011;64974;53.144;17.962;2022-12-05T15:18:08;45.70;;;19.35;;
76196;SDS011;64974;53.144;17.962;2022-12-05T15:21:04;51.20;;;21.08;;
76196;SDS011;64974;53.144;17.962;2022-12-05T15:23:36;42.70;;;19.70;;
76196;SDS011;64974;53.144;17.962;2022-12-05T15:26:04;51.28;;;19.98;;
76196;SDS011;64974;53.144;17.962;2022-12-05T15:28:30;50.28;;;20.65;;
76196;SDS011;64974;53.144;17.962;2022-12-05T15:30:56;55.17;;;22.52;;
76196;SDS011;64974;53.144;17.962;2022-12-05T15:33:21;57.08;;;23.50;;
76196;SDS011;64974;53.144;17.962;2022-12-05T15:35:47;56.80;;;23.27;;
76196;SDS011;64974;53.144;17.962;2022-12-05T15:38:19;63.92;;;27.40;;
76196;SDS011;64974;53.144;17.962;2022-12-05T15:40:48;63.40;;;24.73;;
76196;SDS011;64974;53.144;17.962;2022-12-05T15:43:26;60.88;;;24.77;;
76196;SDS011;64974;53.144;17.962;2022-12-05T15:46:08;50.03;;;22.13;;
76196;SDS011;64974;53.144;17.962;2022-12-05T15:48:47;55.20;;;23.23;;
76196;SDS011;64974;53.144;17.962;2022-12-05T15:51:13;69.45;;;26.67;;
76196;SDS011;64974;53.144;17.962;2022-12-05T15:53:40;56.55;;;23.45;;
76196;SDS011;64974;53.144;17.962;2022-12-05T15:56:27;70.30;;;29.33;;
76196;SDS011;64974;53.144;17.962;2022-12-05T16:01:42;65.88;;;26.10;;
76196;SDS011;64974;53.144;17.962;2022-12-05T16:04:17;52.72;;;22.77;;
76196;SDS011;64974;53.144;17.962;2022-12-05T16:06:47;53.53;;;23.52;;
76196;SDS011;64974;53.144;17.962;2022-12-05T16:09:14;67.60;;;27.20;;
76196;SDS011;64974;53.144;17.962;2022-12-05T16:11:52;58.00;;;24.42;;
76196;SDS011;64974;53.144;17.962;2022-12-05T16:14:18;59.58;;;22.80;;
76196;SDS011;64974;53.144;17.962;2022-12-05T16:16:44;51.95;;;21.10;;
76196;SDS011;64974;53.144;17.962;2022-12-05T16:19:14;42.80;;;17.77;;
76196;SDS011;64974;53.144;17.962;2022-12-05T16:21:43;51.60;;;20.17;;
76196;SDS011;64974;53.144;17.962;2022-12-05T16:24:17;49.20;;;20.83;;
76196;SDS011;64974;53.144;17.962;2022-12-05T16:30:04;68.13;;;29.30;;
76196;SDS011;64974;53.144;17.962;2022-12-05T16:32:38;86.68;;;33.40;;
76196;SDS011;64974;53.144;17.962;2022-12-05T16:35:21;112.18;;;42.97;;
76196;SDS011;64974;53.144;17.962;2022-12-05T16:38:06;140.70;;;53.65;;
76196;SDS011;64974;53.144;17.962;2022-12-05T16:40:39;141.32;;;51.40;;
76196;SDS011;64974;53.144;17.962;2022-12-05T16:43:40;115.18;;;43.60;;
76196;SDS011;64974;53.144;17.962;2022-12-05T16:51:41;115.32;;;49.25;;
76196;SDS011;64974;53.144;17.962;2022-12-05T16:54:08;109.43;;;46.92;;
76196;SDS011;64974;53.144;17.962;2022-12-05T16:56:33;95.38;;;41.28;;
76196;SDS011;64974;53.144;17.962;2022-12-05T16:59:05;83.43;;;36.22;;
76196;SDS011;64974;53.144;17.962;2022-12-05T17:01:31;74.00;;;31.17;;
76196;SDS011;64974;53.144;17.962;2022-12-05T17:03:57;71.93;;;31.42;;
76196;SDS011;64974;53.144;17.962;2022-12-05T17:08:49;47.35;;;20.33;;
76196;SDS011;64974;53.144;17.962;2022-12-05T17:11:16;54.80;;;21.70;;
76196;SDS011;64974;53.144;17.962;2022-12-05T17:13:44;49.20;;;21.85;;
76196;SDS011;64974;53.144;17.962;2022-12-05T17:16:12;66.80;;;30.58;;
76196;SDS011;64974;53.144;17.962;2022-12-05T17:18:38;56.05;;;23.33;;
76196;SDS011;64974;53.144;17.962;2022-12-05T17:21:03;55.30;;;23.10;;
76196;SDS011;64974;53.144;17.962;2022-12-05T17:23:29;55.63;;;22.05;;
76196;SDS011;64974;53.144;17.962;2022-12-05T17:25:55;50.08;;;21.50;;
76196;SDS011;64974;53.144;17.962;2022-12-05T17:28:21;58.65;;;22.35;;
76196;SDS011;64974;53.144;17.962;2022-12-05T17:30:47;49.75;;;26.42;;
76196;SDS011;64974;53.144;17.962;2022-12-05T17:33:14;58.15;;;28.20;;
76196;SDS011;64974;53.144;17.962;2022-12-05T17:35:41;62.38;;;29.00;;
76196;SDS011;64974;53.144;17.962;2022-12-05T17:38:06;56.70;;;26.08;;
76196;SDS011;64974;53.144;17.962;2022-12-05T17:40:32;55.42;;;22.08;;
76196;SDS011;64974;53.144;17.962;2022-12-05T17:42:58;55.20;;;22.13;;
76196;SDS011;64974;53.144;17.962;2022-12-05T17:45:24;64.93;;;27.38;;
76196;SDS011;64974;53.144;17.962;2022-12-05T17:47:49;73.07;;;28.20;;
76196;SDS011;64974;53.144;17.962;2022-12-05T17:50:16;69.65;;;31.17;;
76196;SDS011;64974;53.144;17.962;2022-12-05T17:52:43;69.55;;;28.60;;
76196;SDS011;64974;53.144;17.962;2022-12-05T17:55:22;66.63;;;28.98;;
76196;SDS011;64974;53.144;17.962;2022-12-05T17:57:49;61.40;;;27.70;;
76196;SDS011;64974;53.144;17.962;2022-12-05T18:00:16;87.22;;;32.17;;
76196;SDS011;64974;53.144;17.962;2022-12-05T18:02:43;128.23;;;49.88;;
76196;SDS011;64974;53.144;17.962;2022-12-05T18:05:09;110.50;;;41.35;;
76196;SDS011;64974;53.144;17.962;2022-12-05T18:07:38;134.73;;;43.15;;
76196;SDS011;64974;53.144;17.962;2022-12-05T18:10:05;133.02;;;45.75;;
76196;SDS011;64974;53.144;17.962;2022-12-05T18:12:31;135.45;;;47.92;;
76196;SDS011;64974;53.144;17.962;2022-12-05T18:14:57;127.18;;;46.42;;
76196;SDS011;64974;53.144;17.962;2022-12-05T18:17:22;115.38;;;42.38;;
76196;SDS011;64974;53.144;17.962;2022-12-05T18:19:48;123.68;;;43.05;;
76196;SDS011;64974;53.144;17.962;2022-12-05T18:22:14;113.55;;;39.00;;
76196;SDS011;64974;53.144;17.962;2022-12-05T18:24:40;112.22;;;40.00;;
76196;SDS011;64974;53.144;17.962;2022-12-05T18:27:05;112.28;;;38.60;;
76196;SDS011;64974;53.144;17.962;2022-12-05T18:29:30;104.00;;;38.72;;
76196;SDS011;64974;53.144;17.962;2022-12-05T18:31:56;100.85;;;36.38;;
76196;SDS011;64974;53.144;17.962;2022-12-05T18:34:22;90.82;;;37.53;;
76196;SDS011;64974;53.144;17.962;2022-12-05T18:36:47;86.28;;;32.92;;
76196;SDS011;64974;53.144;17.962;2022-12-05T18:39:13;93.40;;;39.47;;
76196;SDS011;64974;53.144;17.962;2022-12-05T18:41:38;86.90;;;34.17;;
76196;SDS011;64974;53.144;17.962;2022-12-05T18:44:04;89.18;;;35.60;;
76196;SDS011;64974;53.144;17.962;2022-12-05T18:46:30;71.57;;;29.83;;
76196;SDS011;64974;53.144;17.962;2022-12-05T18:48:56;77.75;;;29.98;;
76196;SDS011;64974;53.144;17.962;2022-12-05T18:51:21;73.95;;;29.58;;
76196;SDS011;64974;53.144;17.962;2022-12-05T18:56:22;63.50;;;24.92;;
76196;SDS011;64974;53.144;17.962;2022-12-05T18:58:55;66.90;;;25.92;;
76196;SDS011;64974;53.144;17.962;2022-12-05T19:01:26;68.03;;;27.55;;
76196;SDS011;64974;53.144;17.962;2022-12-05T19:03:52;66.47;;;25.52;;
76196;SDS011;64974;53.144;17.962;2022-12-05T19:06:18;69.32;;;24.73;;
76196;SDS011;64974;53.144;17.962;2022-12-05T19:08:45;70.68;;;26.45;;
76196;SDS011;64974;53.144;17.962;2022-12-05T19:11:12;72.22;;;27.40;;
76196;SDS011;64974;53.144;17.962;2022-12-05T19:13:38;81.70;;;32.95;;
76196;SDS011;64974;53.144;17.962;2022-12-05T19:16:05;87.03;;;35.22;;
76196;SDS011;64974;53.144;17.962;2022-12-05T19:18:32;68.90;;;28.00;;
76196;SDS011;64974;53.144;17.962;2022-12-05T19:20:58;72.47;;;29.35;;
76196;SDS011;64974;53.144;17.962;2022-12-05T19:23:24;85.10;;;33.90;;
76196;SDS011;64974;53.144;17.962;2022-12-05T19:25:53;93.97;;;35.97;;
76196;SDS011;64974;53.144;17.962;2022-12-05T19:28:28;83.35;;;31.35;;
76196;SDS011;64974;53.144;17.962;2022-12-05T19:30:59;80.80;;;31.33;;
76196;SDS011;64974;53.144;17.962;2022-12-05T19:33:36;109.50;;;41.38;;
76196;SDS011;64974;53.144;17.962;2022-12-05T19:36:10;92.32;;;33.97;;
76196;SDS011;64974;53.144;17.962;2022-12-05T19:38:37;80.20;;;27.13;;
76196;SDS011;64974;53.144;17.962;2022-12-05T19:41:04;110.68;;;39.30;;
76196;SDS011;64974;53.144;17.962;2022-12-05T19:43:30;102.70;;;36.40;;
76196;SDS011;64974;53.144;17.962;2022-12-05T19:45:57;84.65;;;34.90;;
76196;SDS011;64974;53.144;17.962;2022-12-05T19:48:26;105.53;;;39.50;;
76196;SDS011;64974;53.144;17.962;2022-12-05T19:50:54;89.80;;;33.42;;
76196;SDS011;64974;53.144;17.962;2022-12-05T19:53:21;66.18;;;24.20;;
76196;SDS011;64974;53.144;17.962;2022-12-05T19:55:47;72.55;;;26.75;;
76196;SDS011;64974;53.144;17.962;2022-12-05T19:58:12;72.30;;;26.42;;
76196;SDS011;64974;53.144;17.962;2022-12-05T20:00:38;80.35;;;31.40;;
76196;SDS011;64974;53.144;17.962;2022-12-05T20:03:03;71.72;;;27.23;;
76196;SDS011;64974;53.144;17.962;2022-12-05T20:05:28;62.57;;;27.07;;
76196;SDS011;64974;53.144;17.962;2022-12-05T20:10:20;64.33;;;22.63;;
76196;SDS011;64974;53.144;17.962;2022-12-05T20:12:45;61.70;;;23.27;;
76196;SDS011;64974;53.144;17.962;2022-12-05T20:15:11;77.83;;;29.57;;
76196;SDS011;64974;53.144;17.962;2022-12-05T20:17:36;67.95;;;27.83;;
76196;SDS011;64974;53.144;17.962;2022-12-05T20:20:02;64.17;;;25.97;;
76196;SDS011;64974;53.144;17.962;2022-12-05T20:22:28;71.13;;;27.73;;
76196;SDS011;64974;53.144;17.962;2022-12-05T20:27:20;70.05;;;26.30;;
76196;SDS011;64974;53.144;17.962;2022-12-05T20:29:45;65.75;;;25.05;;
76196;SDS011;64974;53.144;17.962;2022-12-05T20:32:10;56.60;;;23.67;;